<?xml version="1.0" encoding="UTF-8" standalone="no" ?>
<gpx xmlns="http://www.topografix.com/GPX/1/1" xmlns:xsi="http://www.w3.org/2001/XMLSchema-instance" xsi:schemaLocation="http://www.topografix.com/GPX/1/1 http://www.topografix.com/GPX/1/1/gpx.xsd" version="1.1" creator="VisuGPX - https://www.visugpx.com">
  <metadata>
    <name>Bords d'Adour.</name>
    <desc><![CDATA[Les deux berges de l'Adour au sud de Tarbes.

]]></desc>
  </metadata>
  <trk>
    <name><![CDATA[18 oct. 2020 à 09:02:59]]></name>
    <cmt><![CDATA[18 oct. 2020 à 09:02:59]]></cmt>
    <trkseg>
      <trkpt lat="43.23402" lon="0.08147">
        <ele>320</ele>
        <time>2020-10-18T07:03:00Z</time>
      </trkpt>
      <trkpt lat="43.23402" lon="0.08148">
        <ele>320</ele>
        <time>2020-10-18T07:03:01Z</time>
      </trkpt>
      <trkpt lat="43.23404" lon="0.08157">
        <ele>320</ele>
        <time>2020-10-18T07:03:09Z</time>
      </trkpt>
      <trkpt lat="43.234" lon="0.08169">
        <ele>319</ele>
        <time>2020-10-18T07:03:25Z</time>
      </trkpt>
      <trkpt lat="43.23393" lon="0.08176">
        <ele>319</ele>
        <time>2020-10-18T07:03:33Z</time>
      </trkpt>
      <trkpt lat="43.23354" lon="0.08206">
        <ele>318</ele>
        <time>2020-10-18T07:04:07Z</time>
      </trkpt>
      <trkpt lat="43.23326" lon="0.08254">
        <ele>318</ele>
        <time>2020-10-18T07:04:40Z</time>
      </trkpt>
      <trkpt lat="43.23324" lon="0.08273">
        <ele>318</ele>
        <time>2020-10-18T07:04:51Z</time>
      </trkpt>
      <trkpt lat="43.2333" lon="0.08334">
        <ele>317</ele>
        <time>2020-10-18T07:05:25Z</time>
      </trkpt>
      <trkpt lat="43.23327" lon="0.08378">
        <ele>317</ele>
        <time>2020-10-18T07:05:46Z</time>
      </trkpt>
      <trkpt lat="43.23325" lon="0.08386">
        <ele>317</ele>
        <time>2020-10-18T07:05:51Z</time>
      </trkpt>
      <trkpt lat="43.23335" lon="0.08425">
        <ele>317</ele>
        <time>2020-10-18T07:06:19Z</time>
      </trkpt>
      <trkpt lat="43.23323" lon="0.08486">
        <ele>316</ele>
        <time>2020-10-18T07:06:49Z</time>
      </trkpt>
      <trkpt lat="43.23309" lon="0.08569">
        <ele>316</ele>
        <time>2020-10-18T07:07:30Z</time>
      </trkpt>
      <trkpt lat="43.23287" lon="0.0859">
        <ele>316</ele>
        <time>2020-10-18T07:07:48Z</time>
      </trkpt>
      <trkpt lat="43.23273" lon="0.08625">
        <ele>315</ele>
        <time>2020-10-18T07:08:12Z</time>
      </trkpt>
      <trkpt lat="43.23268" lon="0.0865">
        <ele>315</ele>
        <time>2020-10-18T07:08:26Z</time>
      </trkpt>
      <trkpt lat="43.2326" lon="0.08666">
        <ele>315</ele>
        <time>2020-10-18T07:08:39Z</time>
      </trkpt>
      <trkpt lat="43.23248" lon="0.08675">
        <ele>315</ele>
        <time>2020-10-18T07:08:55Z</time>
      </trkpt>
      <trkpt lat="43.23249" lon="0.08697">
        <ele>316</ele>
        <time>2020-10-18T07:09:05Z</time>
      </trkpt>
      <trkpt lat="43.23245" lon="0.08704">
        <ele>316</ele>
        <time>2020-10-18T07:09:10Z</time>
      </trkpt>
      <trkpt lat="43.23237" lon="0.08707">
        <ele>317</ele>
        <time>2020-10-18T07:09:17Z</time>
      </trkpt>
      <trkpt lat="43.23229" lon="0.08707">
        <ele>317</ele>
        <time>2020-10-18T07:09:23Z</time>
      </trkpt>
      <trkpt lat="43.23216" lon="0.08713">
        <ele>318</ele>
        <time>2020-10-18T07:09:38Z</time>
      </trkpt>
      <trkpt lat="43.23207" lon="0.08731">
        <ele>318</ele>
        <time>2020-10-18T07:09:54Z</time>
      </trkpt>
      <trkpt lat="43.23209" lon="0.08741">
        <ele>318</ele>
        <time>2020-10-18T07:09:58Z</time>
      </trkpt>
      <trkpt lat="43.23214" lon="0.08749">
        <ele>318</ele>
        <time>2020-10-18T07:10:02Z</time>
      </trkpt>
      <trkpt lat="43.23216" lon="0.08759">
        <ele>318</ele>
        <time>2020-10-18T07:10:08Z</time>
      </trkpt>
      <trkpt lat="43.23221" lon="0.08792">
        <ele>319</ele>
        <time>2020-10-18T07:10:23Z</time>
      </trkpt>
      <trkpt lat="43.23234" lon="0.08832">
        <ele>319</ele>
        <time>2020-10-18T07:10:46Z</time>
      </trkpt>
      <trkpt lat="43.23245" lon="0.08896">
        <ele>318</ele>
        <time>2020-10-18T07:11:22Z</time>
      </trkpt>
      <trkpt lat="43.23251" lon="0.08918">
        <ele>318</ele>
        <time>2020-10-18T07:11:32Z</time>
      </trkpt>
      <trkpt lat="43.2325" lon="0.08916">
        <ele>315</ele>
        <time>2020-10-18T07:12:09Z</time>
      </trkpt>
      <trkpt lat="43.23252" lon="0.08901">
        <ele>313</ele>
        <time>2020-10-18T07:12:23Z</time>
      </trkpt>
      <trkpt lat="43.23243" lon="0.08883">
        <ele>312</ele>
        <time>2020-10-18T07:12:43Z</time>
      </trkpt>
      <trkpt lat="43.23232" lon="0.0887">
        <ele>312</ele>
        <time>2020-10-18T07:13:07Z</time>
      </trkpt>
      <trkpt lat="43.23217" lon="0.08877">
        <ele>312</ele>
        <time>2020-10-18T07:13:21Z</time>
      </trkpt>
      <trkpt lat="43.23207" lon="0.08877">
        <ele>312</ele>
        <time>2020-10-18T07:13:31Z</time>
      </trkpt>
      <trkpt lat="43.232" lon="0.08873">
        <ele>312</ele>
        <time>2020-10-18T07:13:38Z</time>
      </trkpt>
      <trkpt lat="43.23177" lon="0.0888">
        <ele>312</ele>
        <time>2020-10-18T07:14:09Z</time>
      </trkpt>
      <trkpt lat="43.2316" lon="0.08877">
        <ele>312</ele>
        <time>2020-10-18T07:14:20Z</time>
      </trkpt>
      <trkpt lat="43.23111" lon="0.08889">
        <ele>312</ele>
        <time>2020-10-18T07:14:42Z</time>
      </trkpt>
      <trkpt lat="43.2307" lon="0.08906">
        <ele>312</ele>
        <time>2020-10-18T07:15:11Z</time>
      </trkpt>
      <trkpt lat="43.23039" lon="0.0892">
        <ele>312</ele>
        <time>2020-10-18T07:15:33Z</time>
      </trkpt>
      <trkpt lat="43.23012" lon="0.08936">
        <ele>312</ele>
        <time>2020-10-18T07:15:51Z</time>
      </trkpt>
      <trkpt lat="43.22974" lon="0.08972">
        <ele>313</ele>
        <time>2020-10-18T07:16:22Z</time>
      </trkpt>
      <trkpt lat="43.22967" lon="0.08977">
        <ele>313</ele>
        <time>2020-10-18T07:16:29Z</time>
      </trkpt>
      <trkpt lat="43.22957" lon="0.0898">
        <ele>313</ele>
        <time>2020-10-18T07:16:38Z</time>
      </trkpt>
      <trkpt lat="43.22944" lon="0.0899">
        <ele>313</ele>
        <time>2020-10-18T07:16:50Z</time>
      </trkpt>
      <trkpt lat="43.22922" lon="0.09008">
        <ele>314</ele>
        <time>2020-10-18T07:17:08Z</time>
      </trkpt>
      <trkpt lat="43.22901" lon="0.09019">
        <ele>314</ele>
        <time>2020-10-18T07:17:24Z</time>
      </trkpt>
      <trkpt lat="43.22893" lon="0.09025">
        <ele>314</ele>
        <time>2020-10-18T07:17:37Z</time>
      </trkpt>
      <trkpt lat="43.22869" lon="0.09033">
        <ele>314</ele>
        <time>2020-10-18T07:17:52Z</time>
      </trkpt>
      <trkpt lat="43.22861" lon="0.09033">
        <ele>315</ele>
        <time>2020-10-18T07:17:58Z</time>
      </trkpt>
      <trkpt lat="43.22839" lon="0.09047">
        <ele>315</ele>
        <time>2020-10-18T07:18:13Z</time>
      </trkpt>
      <trkpt lat="43.22823" lon="0.09049">
        <ele>315</ele>
        <time>2020-10-18T07:18:25Z</time>
      </trkpt>
      <trkpt lat="43.22793" lon="0.09062">
        <ele>316</ele>
        <time>2020-10-18T07:18:45Z</time>
      </trkpt>
      <trkpt lat="43.22776" lon="0.09063">
        <ele>316</ele>
        <time>2020-10-18T07:18:59Z</time>
      </trkpt>
      <trkpt lat="43.2277" lon="0.09067">
        <ele>316</ele>
        <time>2020-10-18T07:19:05Z</time>
      </trkpt>
      <trkpt lat="43.22755" lon="0.09069">
        <ele>316</ele>
        <time>2020-10-18T07:19:16Z</time>
      </trkpt>
      <trkpt lat="43.22742" lon="0.09077">
        <ele>316</ele>
        <time>2020-10-18T07:19:30Z</time>
      </trkpt>
      <trkpt lat="43.22725" lon="0.09085">
        <ele>317</ele>
        <time>2020-10-18T07:19:47Z</time>
      </trkpt>
      <trkpt lat="43.22705" lon="0.09106">
        <ele>318</ele>
        <time>2020-10-18T07:20:03Z</time>
      </trkpt>
      <trkpt lat="43.22662" lon="0.09128">
        <ele>319</ele>
        <time>2020-10-18T07:20:35Z</time>
      </trkpt>
      <trkpt lat="43.22654" lon="0.09129">
        <ele>319</ele>
        <time>2020-10-18T07:20:41Z</time>
      </trkpt>
      <trkpt lat="43.22642" lon="0.09135">
        <ele>319</ele>
        <time>2020-10-18T07:20:49Z</time>
      </trkpt>
      <trkpt lat="43.22622" lon="0.09153">
        <ele>319</ele>
        <time>2020-10-18T07:21:05Z</time>
      </trkpt>
      <trkpt lat="43.22615" lon="0.09156">
        <ele>319</ele>
        <time>2020-10-18T07:21:10Z</time>
      </trkpt>
      <trkpt lat="43.22596" lon="0.09153">
        <ele>319</ele>
        <time>2020-10-18T07:21:22Z</time>
      </trkpt>
      <trkpt lat="43.22555" lon="0.09175">
        <ele>319</ele>
        <time>2020-10-18T07:21:55Z</time>
      </trkpt>
      <trkpt lat="43.22512" lon="0.09183">
        <ele>318</ele>
        <time>2020-10-18T07:22:27Z</time>
      </trkpt>
      <trkpt lat="43.22497" lon="0.09191">
        <ele>318</ele>
        <time>2020-10-18T07:22:38Z</time>
      </trkpt>
      <trkpt lat="43.22457" lon="0.09199">
        <ele>318</ele>
        <time>2020-10-18T07:23:11Z</time>
      </trkpt>
      <trkpt lat="43.22436" lon="0.09211">
        <ele>318</ele>
        <time>2020-10-18T07:23:32Z</time>
      </trkpt>
      <trkpt lat="43.22427" lon="0.09223">
        <ele>318</ele>
        <time>2020-10-18T07:23:46Z</time>
      </trkpt>
      <trkpt lat="43.2242" lon="0.09228">
        <ele>319</ele>
        <time>2020-10-18T07:23:53Z</time>
      </trkpt>
      <trkpt lat="43.22395" lon="0.09233">
        <ele>320</ele>
        <time>2020-10-18T07:24:10Z</time>
      </trkpt>
      <trkpt lat="43.22381" lon="0.0924">
        <ele>320</ele>
        <time>2020-10-18T07:24:19Z</time>
      </trkpt>
      <trkpt lat="43.22354" lon="0.09274">
        <ele>321</ele>
        <time>2020-10-18T07:24:41Z</time>
      </trkpt>
      <trkpt lat="43.22348" lon="0.09277">
        <ele>321</ele>
        <time>2020-10-18T07:24:45Z</time>
      </trkpt>
      <trkpt lat="43.22343" lon="0.09281">
        <ele>321</ele>
        <time>2020-10-18T07:24:50Z</time>
      </trkpt>
      <trkpt lat="43.2234" lon="0.09271">
        <ele>320</ele>
        <time>2020-10-18T07:25:03Z</time>
      </trkpt>
      <trkpt lat="43.22331" lon="0.09269">
        <ele>320</ele>
        <time>2020-10-18T07:26:07Z</time>
      </trkpt>
      <trkpt lat="43.22326" lon="0.09265">
        <ele>319</ele>
        <time>2020-10-18T07:26:12Z</time>
      </trkpt>
      <trkpt lat="43.2232" lon="0.09264">
        <ele>319</ele>
        <time>2020-10-18T07:26:17Z</time>
      </trkpt>
      <trkpt lat="43.22313" lon="0.09265">
        <ele>319</ele>
        <time>2020-10-18T07:26:24Z</time>
      </trkpt>
      <trkpt lat="43.22308" lon="0.09268">
        <ele>319</ele>
        <time>2020-10-18T07:26:28Z</time>
      </trkpt>
      <trkpt lat="43.223" lon="0.09269">
        <ele>319</ele>
        <time>2020-10-18T07:26:34Z</time>
      </trkpt>
      <trkpt lat="43.22258" lon="0.09287">
        <ele>319</ele>
        <time>2020-10-18T07:27:06Z</time>
      </trkpt>
      <trkpt lat="43.22249" lon="0.09291">
        <ele>319</ele>
        <time>2020-10-18T07:27:12Z</time>
      </trkpt>
      <trkpt lat="43.22239" lon="0.09299">
        <ele>320</ele>
        <time>2020-10-18T07:27:21Z</time>
      </trkpt>
      <trkpt lat="43.22232" lon="0.09311">
        <ele>320</ele>
        <time>2020-10-18T07:27:30Z</time>
      </trkpt>
      <trkpt lat="43.22228" lon="0.0932">
        <ele>321</ele>
        <time>2020-10-18T07:27:36Z</time>
      </trkpt>
      <trkpt lat="43.22217" lon="0.09326">
        <ele>321</ele>
        <time>2020-10-18T07:27:45Z</time>
      </trkpt>
      <trkpt lat="43.22193" lon="0.09332">
        <ele>322</ele>
        <time>2020-10-18T07:28:04Z</time>
      </trkpt>
      <trkpt lat="43.22188" lon="0.09336">
        <ele>322</ele>
        <time>2020-10-18T07:28:07Z</time>
      </trkpt>
      <trkpt lat="43.2218" lon="0.09338">
        <ele>321</ele>
        <time>2020-10-18T07:28:12Z</time>
      </trkpt>
      <trkpt lat="43.22167" lon="0.09339">
        <ele>321</ele>
        <time>2020-10-18T07:28:22Z</time>
      </trkpt>
      <trkpt lat="43.2216" lon="0.09341">
        <ele>320</ele>
        <time>2020-10-18T07:28:29Z</time>
      </trkpt>
      <trkpt lat="43.22151" lon="0.0935">
        <ele>320</ele>
        <time>2020-10-18T07:28:39Z</time>
      </trkpt>
      <trkpt lat="43.22143" lon="0.09357">
        <ele>320</ele>
        <time>2020-10-18T07:28:45Z</time>
      </trkpt>
      <trkpt lat="43.2212" lon="0.09361">
        <ele>320</ele>
        <time>2020-10-18T07:29:02Z</time>
      </trkpt>
      <trkpt lat="43.22095" lon="0.09361">
        <ele>320</ele>
        <time>2020-10-18T07:29:17Z</time>
      </trkpt>
      <trkpt lat="43.22088" lon="0.09364">
        <ele>320</ele>
        <time>2020-10-18T07:29:21Z</time>
      </trkpt>
      <trkpt lat="43.22051" lon="0.09386">
        <ele>320</ele>
        <time>2020-10-18T07:29:49Z</time>
      </trkpt>
      <trkpt lat="43.22045" lon="0.09394">
        <ele>320</ele>
        <time>2020-10-18T07:30:16Z</time>
      </trkpt>
      <trkpt lat="43.22039" lon="0.09399">
        <ele>320</ele>
        <time>2020-10-18T07:30:26Z</time>
      </trkpt>
      <trkpt lat="43.22031" lon="0.09396">
        <ele>319</ele>
        <time>2020-10-18T07:30:41Z</time>
      </trkpt>
      <trkpt lat="43.21997" lon="0.09414">
        <ele>320</ele>
        <time>2020-10-18T07:31:06Z</time>
      </trkpt>
      <trkpt lat="43.21972" lon="0.09414">
        <ele>320</ele>
        <time>2020-10-18T07:31:25Z</time>
      </trkpt>
      <trkpt lat="43.21964" lon="0.09417">
        <ele>321</ele>
        <time>2020-10-18T07:31:32Z</time>
      </trkpt>
      <trkpt lat="43.21956" lon="0.09414">
        <ele>321</ele>
        <time>2020-10-18T07:31:40Z</time>
      </trkpt>
      <trkpt lat="43.21917" lon="0.09423">
        <ele>323</ele>
        <time>2020-10-18T07:32:10Z</time>
      </trkpt>
      <trkpt lat="43.21909" lon="0.09424">
        <ele>324</ele>
        <time>2020-10-18T07:32:16Z</time>
      </trkpt>
      <trkpt lat="43.21888" lon="0.09419">
        <ele>324</ele>
        <time>2020-10-18T07:32:31Z</time>
      </trkpt>
      <trkpt lat="43.21883" lon="0.09415">
        <ele>325</ele>
        <time>2020-10-18T07:32:36Z</time>
      </trkpt>
      <trkpt lat="43.21863" lon="0.09416">
        <ele>325</ele>
        <time>2020-10-18T07:32:50Z</time>
      </trkpt>
      <trkpt lat="43.2185" lon="0.09419">
        <ele>326</ele>
        <time>2020-10-18T07:32:58Z</time>
      </trkpt>
      <trkpt lat="43.2184" lon="0.09414">
        <ele>326</ele>
        <time>2020-10-18T07:33:30Z</time>
      </trkpt>
      <trkpt lat="43.21822" lon="0.09413">
        <ele>326</ele>
        <time>2020-10-18T07:33:43Z</time>
      </trkpt>
      <trkpt lat="43.2181" lon="0.09416">
        <ele>326</ele>
        <time>2020-10-18T07:33:53Z</time>
      </trkpt>
      <trkpt lat="43.21767" lon="0.09418">
        <ele>325</ele>
        <time>2020-10-18T07:34:25Z</time>
      </trkpt>
      <trkpt lat="43.21719" lon="0.09406">
        <ele>324</ele>
        <time>2020-10-18T07:34:58Z</time>
      </trkpt>
      <trkpt lat="43.21707" lon="0.09401">
        <ele>324</ele>
        <time>2020-10-18T07:35:07Z</time>
      </trkpt>
      <trkpt lat="43.217" lon="0.09398">
        <ele>323</ele>
        <time>2020-10-18T07:35:11Z</time>
      </trkpt>
      <trkpt lat="43.21689" lon="0.09394">
        <ele>323</ele>
        <time>2020-10-18T07:35:19Z</time>
      </trkpt>
      <trkpt lat="43.21679" lon="0.09387">
        <ele>323</ele>
        <time>2020-10-18T07:35:28Z</time>
      </trkpt>
      <trkpt lat="43.21651" lon="0.09372">
        <ele>324</ele>
        <time>2020-10-18T07:35:48Z</time>
      </trkpt>
      <trkpt lat="43.21636" lon="0.09359">
        <ele>324</ele>
        <time>2020-10-18T07:36:02Z</time>
      </trkpt>
      <trkpt lat="43.21629" lon="0.09358">
        <ele>325</ele>
        <time>2020-10-18T07:36:06Z</time>
      </trkpt>
      <trkpt lat="43.21592" lon="0.09331">
        <ele>325</ele>
        <time>2020-10-18T07:36:40Z</time>
      </trkpt>
      <trkpt lat="43.21587" lon="0.09329">
        <ele>325</ele>
        <time>2020-10-18T07:36:43Z</time>
      </trkpt>
      <trkpt lat="43.2156" lon="0.09305">
        <ele>325</ele>
        <time>2020-10-18T07:37:05Z</time>
      </trkpt>
      <trkpt lat="43.21556" lon="0.09299">
        <ele>325</ele>
        <time>2020-10-18T07:37:09Z</time>
      </trkpt>
      <trkpt lat="43.21551" lon="0.09295">
        <ele>325</ele>
        <time>2020-10-18T07:37:14Z</time>
      </trkpt>
      <trkpt lat="43.21542" lon="0.09281">
        <ele>325</ele>
        <time>2020-10-18T07:37:25Z</time>
      </trkpt>
      <trkpt lat="43.215" lon="0.09254">
        <ele>324</ele>
        <time>2020-10-18T07:37:44Z</time>
      </trkpt>
      <trkpt lat="43.21498" lon="0.09256">
        <ele>325</ele>
        <time>2020-10-18T07:37:54Z</time>
      </trkpt>
      <trkpt lat="43.21463" lon="0.09218">
        <ele>326</ele>
        <time>2020-10-18T07:38:27Z</time>
      </trkpt>
      <trkpt lat="43.21446" lon="0.09207">
        <ele>326</ele>
        <time>2020-10-18T07:38:39Z</time>
      </trkpt>
      <trkpt lat="43.21428" lon="0.09187">
        <ele>326</ele>
        <time>2020-10-18T07:38:58Z</time>
      </trkpt>
      <trkpt lat="43.21417" lon="0.09184">
        <ele>327</ele>
        <time>2020-10-18T07:39:07Z</time>
      </trkpt>
      <trkpt lat="43.21399" lon="0.09175">
        <ele>327</ele>
        <time>2020-10-18T07:39:21Z</time>
      </trkpt>
      <trkpt lat="43.21374" lon="0.09168">
        <ele>327</ele>
        <time>2020-10-18T07:39:37Z</time>
      </trkpt>
      <trkpt lat="43.21363" lon="0.09163">
        <ele>328</ele>
        <time>2020-10-18T07:39:46Z</time>
      </trkpt>
      <trkpt lat="43.2135" lon="0.09162">
        <ele>328</ele>
        <time>2020-10-18T07:39:55Z</time>
      </trkpt>
      <trkpt lat="43.21344" lon="0.09164">
        <ele>328</ele>
        <time>2020-10-18T07:40:00Z</time>
      </trkpt>
      <trkpt lat="43.21327" lon="0.09162">
        <ele>328</ele>
        <time>2020-10-18T07:40:13Z</time>
      </trkpt>
      <trkpt lat="43.21292" lon="0.0917">
        <ele>328</ele>
        <time>2020-10-18T07:40:39Z</time>
      </trkpt>
      <trkpt lat="43.21286" lon="0.09169">
        <ele>328</ele>
        <time>2020-10-18T07:40:44Z</time>
      </trkpt>
      <trkpt lat="43.2128" lon="0.09171">
        <ele>328</ele>
        <time>2020-10-18T07:40:48Z</time>
      </trkpt>
      <trkpt lat="43.21249" lon="0.09178">
        <ele>328</ele>
        <time>2020-10-18T07:41:11Z</time>
      </trkpt>
      <trkpt lat="43.21245" lon="0.09173">
        <ele>328</ele>
        <time>2020-10-18T07:41:16Z</time>
      </trkpt>
      <trkpt lat="43.21242" lon="0.09168">
        <ele>328</ele>
        <time>2020-10-18T07:41:36Z</time>
      </trkpt>
      <trkpt lat="43.21235" lon="0.09173">
        <ele>328</ele>
        <time>2020-10-18T07:41:53Z</time>
      </trkpt>
      <trkpt lat="43.21222" lon="0.09176">
        <ele>328</ele>
        <time>2020-10-18T07:42:04Z</time>
      </trkpt>
      <trkpt lat="43.21207" lon="0.09173">
        <ele>327</ele>
        <time>2020-10-18T07:43:38Z</time>
      </trkpt>
      <trkpt lat="43.212" lon="0.09175">
        <ele>327</ele>
        <time>2020-10-18T07:43:47Z</time>
      </trkpt>
      <trkpt lat="43.21185" lon="0.09182">
        <ele>327</ele>
        <time>2020-10-18T07:44:05Z</time>
      </trkpt>
      <trkpt lat="43.21169" lon="0.09184">
        <ele>327</ele>
        <time>2020-10-18T07:44:12Z</time>
      </trkpt>
      <trkpt lat="43.21142" lon="0.09181">
        <ele>328</ele>
        <time>2020-10-18T07:44:35Z</time>
      </trkpt>
      <trkpt lat="43.21095" lon="0.09195">
        <ele>329</ele>
        <time>2020-10-18T07:45:06Z</time>
      </trkpt>
      <trkpt lat="43.21083" lon="0.09205">
        <ele>330</ele>
        <time>2020-10-18T07:45:19Z</time>
      </trkpt>
      <trkpt lat="43.21063" lon="0.09227">
        <ele>329</ele>
        <time>2020-10-18T07:45:42Z</time>
      </trkpt>
      <trkpt lat="43.21059" lon="0.09233">
        <ele>329</ele>
        <time>2020-10-18T07:45:46Z</time>
      </trkpt>
      <trkpt lat="43.21047" lon="0.09244">
        <ele>330</ele>
        <time>2020-10-18T07:45:56Z</time>
      </trkpt>
      <trkpt lat="43.21031" lon="0.09251">
        <ele>330</ele>
        <time>2020-10-18T07:46:11Z</time>
      </trkpt>
      <trkpt lat="43.21019" lon="0.0926">
        <ele>331</ele>
        <time>2020-10-18T07:46:22Z</time>
      </trkpt>
      <trkpt lat="43.21012" lon="0.09267">
        <ele>331</ele>
        <time>2020-10-18T07:46:28Z</time>
      </trkpt>
      <trkpt lat="43.21008" lon="0.09275">
        <ele>331</ele>
        <time>2020-10-18T07:46:34Z</time>
      </trkpt>
      <trkpt lat="43.21002" lon="0.09281">
        <ele>332</ele>
        <time>2020-10-18T07:46:42Z</time>
      </trkpt>
      <trkpt lat="43.2099" lon="0.09289">
        <ele>331</ele>
        <time>2020-10-18T07:46:56Z</time>
      </trkpt>
      <trkpt lat="43.20965" lon="0.09313">
        <ele>332</ele>
        <time>2020-10-18T07:47:18Z</time>
      </trkpt>
      <trkpt lat="43.20935" lon="0.09325">
        <ele>332</ele>
        <time>2020-10-18T07:47:43Z</time>
      </trkpt>
      <trkpt lat="43.20922" lon="0.09336">
        <ele>332</ele>
        <time>2020-10-18T07:47:53Z</time>
      </trkpt>
      <trkpt lat="43.20914" lon="0.09338">
        <ele>332</ele>
        <time>2020-10-18T07:47:57Z</time>
      </trkpt>
      <trkpt lat="43.20907" lon="0.09344">
        <ele>332</ele>
        <time>2020-10-18T07:48:02Z</time>
      </trkpt>
      <trkpt lat="43.20866" lon="0.09353">
        <ele>333</ele>
        <time>2020-10-18T07:48:26Z</time>
      </trkpt>
      <trkpt lat="43.20851" lon="0.0936">
        <ele>333</ele>
        <time>2020-10-18T07:48:36Z</time>
      </trkpt>
      <trkpt lat="43.20821" lon="0.09369">
        <ele>333</ele>
        <time>2020-10-18T07:49:00Z</time>
      </trkpt>
      <trkpt lat="43.20821" lon="0.09379">
        <ele>333</ele>
        <time>2020-10-18T07:49:27Z</time>
      </trkpt>
      <trkpt lat="43.20818" lon="0.09386">
        <ele>333</ele>
        <time>2020-10-18T07:49:31Z</time>
      </trkpt>
      <trkpt lat="43.20818" lon="0.094">
        <ele>334</ele>
        <time>2020-10-18T07:49:40Z</time>
      </trkpt>
      <trkpt lat="43.20819" lon="0.09415">
        <ele>334</ele>
        <time>2020-10-18T07:49:49Z</time>
      </trkpt>
      <trkpt lat="43.20807" lon="0.09476">
        <ele>334</ele>
        <time>2020-10-18T07:50:23Z</time>
      </trkpt>
      <trkpt lat="43.20801" lon="0.09501">
        <ele>334</ele>
        <time>2020-10-18T07:50:37Z</time>
      </trkpt>
      <trkpt lat="43.20797" lon="0.09507">
        <ele>334</ele>
        <time>2020-10-18T07:50:42Z</time>
      </trkpt>
      <trkpt lat="43.20786" lon="0.09516">
        <ele>335</ele>
        <time>2020-10-18T07:50:51Z</time>
      </trkpt>
      <trkpt lat="43.20779" lon="0.09517">
        <ele>335</ele>
        <time>2020-10-18T07:50:58Z</time>
      </trkpt>
      <trkpt lat="43.20783" lon="0.0948">
        <ele>334</ele>
        <time>2020-10-18T07:51:17Z</time>
      </trkpt>
      <trkpt lat="43.20783" lon="0.09459">
        <ele>333</ele>
        <time>2020-10-18T07:51:31Z</time>
      </trkpt>
      <trkpt lat="43.20781" lon="0.09452">
        <ele>333</ele>
        <time>2020-10-18T07:51:35Z</time>
      </trkpt>
      <trkpt lat="43.20781" lon="0.09438">
        <ele>333</ele>
        <time>2020-10-18T07:51:44Z</time>
      </trkpt>
      <trkpt lat="43.20786" lon="0.09418">
        <ele>333</ele>
        <time>2020-10-18T07:51:57Z</time>
      </trkpt>
      <trkpt lat="43.20786" lon="0.09408">
        <ele>333</ele>
        <time>2020-10-18T07:52:03Z</time>
      </trkpt>
      <trkpt lat="43.20787" lon="0.09395">
        <ele>333</ele>
        <time>2020-10-18T07:52:13Z</time>
      </trkpt>
      <trkpt lat="43.20787" lon="0.09379">
        <ele>332</ele>
        <time>2020-10-18T07:52:26Z</time>
      </trkpt>
      <trkpt lat="43.20784" lon="0.09369">
        <ele>331</ele>
        <time>2020-10-18T07:52:33Z</time>
      </trkpt>
      <trkpt lat="43.20777" lon="0.09363">
        <ele>331</ele>
        <time>2020-10-18T07:52:39Z</time>
      </trkpt>
      <trkpt lat="43.20769" lon="0.09365">
        <ele>332</ele>
        <time>2020-10-18T07:52:46Z</time>
      </trkpt>
      <trkpt lat="43.20755" lon="0.09375">
        <ele>332</ele>
        <time>2020-10-18T07:52:58Z</time>
      </trkpt>
      <trkpt lat="43.20745" lon="0.09378">
        <ele>332</ele>
        <time>2020-10-18T07:53:09Z</time>
      </trkpt>
      <trkpt lat="43.20714" lon="0.09373">
        <ele>332</ele>
        <time>2020-10-18T07:53:30Z</time>
      </trkpt>
      <trkpt lat="43.2071" lon="0.09374">
        <ele>332</ele>
        <time>2020-10-18T07:53:50Z</time>
      </trkpt>
      <trkpt lat="43.20694" lon="0.09369">
        <ele>332</ele>
        <time>2020-10-18T07:54:16Z</time>
      </trkpt>
      <trkpt lat="43.20687" lon="0.09362">
        <ele>332</ele>
        <time>2020-10-18T07:54:22Z</time>
      </trkpt>
      <trkpt lat="43.20666" lon="0.09359">
        <ele>332</ele>
        <time>2020-10-18T07:54:36Z</time>
      </trkpt>
      <trkpt lat="43.2065" lon="0.09354">
        <ele>333</ele>
        <time>2020-10-18T07:54:48Z</time>
      </trkpt>
      <trkpt lat="43.20613" lon="0.09353">
        <ele>333</ele>
        <time>2020-10-18T07:55:21Z</time>
      </trkpt>
      <trkpt lat="43.20574" lon="0.0933">
        <ele>333</ele>
        <time>2020-10-18T07:55:56Z</time>
      </trkpt>
      <trkpt lat="43.2053" lon="0.09315">
        <ele>334</ele>
        <time>2020-10-18T07:56:22Z</time>
      </trkpt>
      <trkpt lat="43.20491" lon="0.09285">
        <ele>335</ele>
        <time>2020-10-18T07:56:54Z</time>
      </trkpt>
      <trkpt lat="43.20446" lon="0.09272">
        <ele>336</ele>
        <time>2020-10-18T07:57:26Z</time>
      </trkpt>
      <trkpt lat="43.2041" lon="0.09273">
        <ele>338</ele>
        <time>2020-10-18T07:58:01Z</time>
      </trkpt>
      <trkpt lat="43.20401" lon="0.09277">
        <ele>338</ele>
        <time>2020-10-18T07:58:06Z</time>
      </trkpt>
      <trkpt lat="43.20398" lon="0.09282">
        <ele>338</ele>
        <time>2020-10-18T07:58:09Z</time>
      </trkpt>
      <trkpt lat="43.20391" lon="0.09296">
        <ele>339</ele>
        <time>2020-10-18T07:58:21Z</time>
      </trkpt>
      <trkpt lat="43.20386" lon="0.09301">
        <ele>339</ele>
        <time>2020-10-18T07:58:25Z</time>
      </trkpt>
      <trkpt lat="43.20378" lon="0.09304">
        <ele>339</ele>
        <time>2020-10-18T07:58:31Z</time>
      </trkpt>
      <trkpt lat="43.20372" lon="0.09301">
        <ele>340</ele>
        <time>2020-10-18T07:58:36Z</time>
      </trkpt>
      <trkpt lat="43.20366" lon="0.09294">
        <ele>341</ele>
        <time>2020-10-18T07:58:44Z</time>
      </trkpt>
      <trkpt lat="43.20362" lon="0.09289">
        <ele>344</ele>
        <time>2020-10-18T07:59:08Z</time>
      </trkpt>
      <trkpt lat="43.20358" lon="0.09228">
        <ele>344</ele>
        <time>2020-10-18T07:59:42Z</time>
      </trkpt>
      <trkpt lat="43.20358" lon="0.09217">
        <ele>343</ele>
        <time>2020-10-18T07:59:47Z</time>
      </trkpt>
      <trkpt lat="43.2036" lon="0.0921">
        <ele>343</ele>
        <time>2020-10-18T07:59:52Z</time>
      </trkpt>
      <trkpt lat="43.20361" lon="0.09162">
        <ele>342</ele>
        <time>2020-10-18T08:00:24Z</time>
      </trkpt>
      <trkpt lat="43.2036" lon="0.0914">
        <ele>341</ele>
        <time>2020-10-18T08:00:38Z</time>
      </trkpt>
      <trkpt lat="43.20375" lon="0.09138">
        <ele>339</ele>
        <time>2020-10-18T08:00:59Z</time>
      </trkpt>
      <trkpt lat="43.20409" lon="0.09168">
        <ele>338</ele>
        <time>2020-10-18T08:01:31Z</time>
      </trkpt>
      <trkpt lat="43.20417" lon="0.09168">
        <ele>339</ele>
        <time>2020-10-18T08:01:37Z</time>
      </trkpt>
      <trkpt lat="43.20458" lon="0.09196">
        <ele>338</ele>
        <time>2020-10-18T08:02:08Z</time>
      </trkpt>
      <trkpt lat="43.20465" lon="0.09203">
        <ele>338</ele>
        <time>2020-10-18T08:02:17Z</time>
      </trkpt>
      <trkpt lat="43.20489" lon="0.09212">
        <ele>337</ele>
        <time>2020-10-18T08:02:34Z</time>
      </trkpt>
      <trkpt lat="43.20495" lon="0.09218">
        <ele>337</ele>
        <time>2020-10-18T08:02:39Z</time>
      </trkpt>
      <trkpt lat="43.20517" lon="0.09228">
        <ele>336</ele>
        <time>2020-10-18T08:02:55Z</time>
      </trkpt>
      <trkpt lat="43.20535" lon="0.09248">
        <ele>336</ele>
        <time>2020-10-18T08:03:12Z</time>
      </trkpt>
      <trkpt lat="43.2055" lon="0.09255">
        <ele>335</ele>
        <time>2020-10-18T08:03:22Z</time>
      </trkpt>
      <trkpt lat="43.20571" lon="0.09278">
        <ele>335</ele>
        <time>2020-10-18T08:03:47Z</time>
      </trkpt>
      <trkpt lat="43.20578" lon="0.09278">
        <ele>335</ele>
        <time>2020-10-18T08:03:54Z</time>
      </trkpt>
      <trkpt lat="43.20601" lon="0.09292">
        <ele>334</ele>
        <time>2020-10-18T08:04:11Z</time>
      </trkpt>
      <trkpt lat="43.2064" lon="0.09308">
        <ele>333</ele>
        <time>2020-10-18T08:04:42Z</time>
      </trkpt>
      <trkpt lat="43.20672" lon="0.0931">
        <ele>333</ele>
        <time>2020-10-18T08:05:12Z</time>
      </trkpt>
      <trkpt lat="43.20679" lon="0.09313">
        <ele>333</ele>
        <time>2020-10-18T08:05:18Z</time>
      </trkpt>
      <trkpt lat="43.20687" lon="0.0931">
        <ele>333</ele>
        <time>2020-10-18T08:05:26Z</time>
      </trkpt>
      <trkpt lat="43.20722" lon="0.09316">
        <ele>333</ele>
        <time>2020-10-18T08:05:47Z</time>
      </trkpt>
      <trkpt lat="43.20773" lon="0.09308">
        <ele>332</ele>
        <time>2020-10-18T08:06:23Z</time>
      </trkpt>
      <trkpt lat="43.20813" lon="0.09303">
        <ele>332</ele>
        <time>2020-10-18T08:06:59Z</time>
      </trkpt>
      <trkpt lat="43.2082" lon="0.09299">
        <ele>332</ele>
        <time>2020-10-18T08:07:06Z</time>
      </trkpt>
      <trkpt lat="43.20837" lon="0.09293">
        <ele>332</ele>
        <time>2020-10-18T08:07:18Z</time>
      </trkpt>
      <trkpt lat="43.20844" lon="0.09292">
        <ele>332</ele>
        <time>2020-10-18T08:07:25Z</time>
      </trkpt>
      <trkpt lat="43.20852" lon="0.09294">
        <ele>332</ele>
        <time>2020-10-18T08:07:31Z</time>
      </trkpt>
      <trkpt lat="43.20859" lon="0.09291">
        <ele>332</ele>
        <time>2020-10-18T08:07:37Z</time>
      </trkpt>
      <trkpt lat="43.20902" lon="0.09265">
        <ele>332</ele>
        <time>2020-10-18T08:08:09Z</time>
      </trkpt>
      <trkpt lat="43.20937" lon="0.09245">
        <ele>332</ele>
        <time>2020-10-18T08:08:39Z</time>
      </trkpt>
      <trkpt lat="43.20967" lon="0.09214">
        <ele>332</ele>
        <time>2020-10-18T08:09:08Z</time>
      </trkpt>
      <trkpt lat="43.20976" lon="0.0921">
        <ele>331</ele>
        <time>2020-10-18T08:09:14Z</time>
      </trkpt>
      <trkpt lat="43.21004" lon="0.09172">
        <ele>331</ele>
        <time>2020-10-18T08:09:42Z</time>
      </trkpt>
      <trkpt lat="43.21015" lon="0.09155">
        <ele>331</ele>
        <time>2020-10-18T08:09:53Z</time>
      </trkpt>
      <trkpt lat="43.21021" lon="0.0915">
        <ele>331</ele>
        <time>2020-10-18T08:09:58Z</time>
      </trkpt>
      <trkpt lat="43.21028" lon="0.09133">
        <ele>331</ele>
        <time>2020-10-18T08:10:08Z</time>
      </trkpt>
      <trkpt lat="43.21047" lon="0.09103">
        <ele>332</ele>
        <time>2020-10-18T08:10:31Z</time>
      </trkpt>
      <trkpt lat="43.21059" lon="0.09098">
        <ele>332</ele>
        <time>2020-10-18T08:10:40Z</time>
      </trkpt>
      <trkpt lat="43.21064" lon="0.091">
        <ele>332</ele>
        <time>2020-10-18T08:10:44Z</time>
      </trkpt>
      <trkpt lat="43.21076" lon="0.09109">
        <ele>332</ele>
        <time>2020-10-18T08:10:55Z</time>
      </trkpt>
      <trkpt lat="43.21083" lon="0.09116">
        <ele>332</ele>
        <time>2020-10-18T08:11:01Z</time>
      </trkpt>
      <trkpt lat="43.21089" lon="0.09116">
        <ele>332</ele>
        <time>2020-10-18T08:11:06Z</time>
      </trkpt>
      <trkpt lat="43.21095" lon="0.09113">
        <ele>332</ele>
        <time>2020-10-18T08:11:11Z</time>
      </trkpt>
      <trkpt lat="43.21103" lon="0.09107">
        <ele>332</ele>
        <time>2020-10-18T08:11:17Z</time>
      </trkpt>
      <trkpt lat="43.21113" lon="0.09103">
        <ele>332</ele>
        <time>2020-10-18T08:11:28Z</time>
      </trkpt>
      <trkpt lat="43.21122" lon="0.09096">
        <ele>332</ele>
        <time>2020-10-18T08:11:43Z</time>
      </trkpt>
      <trkpt lat="43.21137" lon="0.09089">
        <ele>332</ele>
        <time>2020-10-18T08:12:01Z</time>
      </trkpt>
      <trkpt lat="43.2115" lon="0.09076">
        <ele>332</ele>
        <time>2020-10-18T08:12:15Z</time>
      </trkpt>
      <trkpt lat="43.21158" lon="0.09073">
        <ele>332</ele>
        <time>2020-10-18T08:12:25Z</time>
      </trkpt>
      <trkpt lat="43.21164" lon="0.09068">
        <ele>332</ele>
        <time>2020-10-18T08:12:33Z</time>
      </trkpt>
      <trkpt lat="43.21183" lon="0.09066">
        <ele>332</ele>
        <time>2020-10-18T08:12:48Z</time>
      </trkpt>
      <trkpt lat="43.2119" lon="0.09068">
        <ele>332</ele>
        <time>2020-10-18T08:12:55Z</time>
      </trkpt>
      <trkpt lat="43.21195" lon="0.09076">
        <ele>332</ele>
        <time>2020-10-18T08:13:01Z</time>
      </trkpt>
      <trkpt lat="43.21201" lon="0.0909">
        <ele>332</ele>
        <time>2020-10-18T08:13:11Z</time>
      </trkpt>
      <trkpt lat="43.21246" lon="0.09122">
        <ele>331</ele>
        <time>2020-10-18T08:13:47Z</time>
      </trkpt>
      <trkpt lat="43.2126" lon="0.09125">
        <ele>330</ele>
        <time>2020-10-18T08:14:00Z</time>
      </trkpt>
      <trkpt lat="43.21269" lon="0.09125">
        <ele>330</ele>
        <time>2020-10-18T08:14:19Z</time>
      </trkpt>
      <trkpt lat="43.21277" lon="0.09125">
        <ele>329</ele>
        <time>2020-10-18T08:14:25Z</time>
      </trkpt>
      <trkpt lat="43.21299" lon="0.0912">
        <ele>328</ele>
        <time>2020-10-18T08:14:45Z</time>
      </trkpt>
      <trkpt lat="43.21323" lon="0.09125">
        <ele>327</ele>
        <time>2020-10-18T08:15:02Z</time>
      </trkpt>
      <trkpt lat="43.21331" lon="0.09122">
        <ele>327</ele>
        <time>2020-10-18T08:15:08Z</time>
      </trkpt>
      <trkpt lat="43.21348" lon="0.09122">
        <ele>327</ele>
        <time>2020-10-18T08:15:19Z</time>
      </trkpt>
      <trkpt lat="43.21364" lon="0.09117">
        <ele>327</ele>
        <time>2020-10-18T08:15:30Z</time>
      </trkpt>
      <trkpt lat="43.21372" lon="0.09118">
        <ele>327</ele>
        <time>2020-10-18T08:15:36Z</time>
      </trkpt>
      <trkpt lat="43.2138" lon="0.09118">
        <ele>327</ele>
        <time>2020-10-18T08:15:43Z</time>
      </trkpt>
      <trkpt lat="43.21388" lon="0.09119">
        <ele>327</ele>
        <time>2020-10-18T08:15:50Z</time>
      </trkpt>
      <trkpt lat="43.21397" lon="0.09114">
        <ele>327</ele>
        <time>2020-10-18T08:15:57Z</time>
      </trkpt>
      <trkpt lat="43.21435" lon="0.0911">
        <ele>327</ele>
        <time>2020-10-18T08:16:17Z</time>
      </trkpt>
      <trkpt lat="43.21441" lon="0.09111">
        <ele>327</ele>
        <time>2020-10-18T08:16:22Z</time>
      </trkpt>
      <trkpt lat="43.21477" lon="0.09137">
        <ele>327</ele>
        <time>2020-10-18T08:16:54Z</time>
      </trkpt>
      <trkpt lat="43.21484" lon="0.0914">
        <ele>327</ele>
        <time>2020-10-18T08:16:59Z</time>
      </trkpt>
      <trkpt lat="43.21492" lon="0.09148">
        <ele>327</ele>
        <time>2020-10-18T08:17:19Z</time>
      </trkpt>
      <trkpt lat="43.21498" lon="0.09155">
        <ele>327</ele>
        <time>2020-10-18T08:17:27Z</time>
      </trkpt>
      <trkpt lat="43.21506" lon="0.09166">
        <ele>326</ele>
        <time>2020-10-18T08:17:39Z</time>
      </trkpt>
      <trkpt lat="43.21512" lon="0.09172">
        <ele>325</ele>
        <time>2020-10-18T08:17:45Z</time>
      </trkpt>
      <trkpt lat="43.21525" lon="0.09194">
        <ele>325</ele>
        <time>2020-10-18T08:18:13Z</time>
      </trkpt>
      <trkpt lat="43.21539" lon="0.09211">
        <ele>326</ele>
        <time>2020-10-18T08:18:20Z</time>
      </trkpt>
      <trkpt lat="43.21568" lon="0.09234">
        <ele>327</ele>
        <time>2020-10-18T08:18:54Z</time>
      </trkpt>
      <trkpt lat="43.21602" lon="0.09251">
        <ele>326</ele>
        <time>2020-10-18T08:19:26Z</time>
      </trkpt>
      <trkpt lat="43.21606" lon="0.09228">
        <ele>327</ele>
        <time>2020-10-18T08:19:55Z</time>
      </trkpt>
      <trkpt lat="43.21605" lon="0.09218">
        <ele>327</ele>
        <time>2020-10-18T08:20:00Z</time>
      </trkpt>
      <trkpt lat="43.21603" lon="0.09208">
        <ele>327</ele>
        <time>2020-10-18T08:20:21Z</time>
      </trkpt>
      <trkpt lat="43.21598" lon="0.09198">
        <ele>327</ele>
        <time>2020-10-18T08:20:29Z</time>
      </trkpt>
      <trkpt lat="43.21592" lon="0.09188">
        <ele>327</ele>
        <time>2020-10-18T08:20:45Z</time>
      </trkpt>
      <trkpt lat="43.21583" lon="0.09158">
        <ele>328</ele>
        <time>2020-10-18T08:21:12Z</time>
      </trkpt>
      <trkpt lat="43.21578" lon="0.09149">
        <ele>328</ele>
        <time>2020-10-18T08:21:20Z</time>
      </trkpt>
      <trkpt lat="43.21573" lon="0.09128">
        <ele>328</ele>
        <time>2020-10-18T08:21:36Z</time>
      </trkpt>
      <trkpt lat="43.21568" lon="0.09119">
        <ele>329</ele>
        <time>2020-10-18T08:21:46Z</time>
      </trkpt>
      <trkpt lat="43.2156" lon="0.09091">
        <ele>329</ele>
        <time>2020-10-18T08:22:03Z</time>
      </trkpt>
      <trkpt lat="43.21559" lon="0.0908">
        <ele>329</ele>
        <time>2020-10-18T08:22:09Z</time>
      </trkpt>
      <trkpt lat="43.2157" lon="0.09048">
        <ele>328</ele>
        <time>2020-10-18T08:22:36Z</time>
      </trkpt>
      <trkpt lat="43.21599" lon="0.09034">
        <ele>328</ele>
        <time>2020-10-18T08:23:10Z</time>
      </trkpt>
      <trkpt lat="43.21616" lon="0.09025">
        <ele>328</ele>
        <time>2020-10-18T08:23:28Z</time>
      </trkpt>
      <trkpt lat="43.21622" lon="0.09039">
        <ele>327</ele>
        <time>2020-10-18T08:24:57Z</time>
      </trkpt>
      <trkpt lat="43.21629" lon="0.0904">
        <ele>327</ele>
        <time>2020-10-18T08:25:05Z</time>
      </trkpt>
      <trkpt lat="43.21636" lon="0.09037">
        <ele>327</ele>
        <time>2020-10-18T08:25:13Z</time>
      </trkpt>
      <trkpt lat="43.21657" lon="0.09031">
        <ele>327</ele>
        <time>2020-10-18T08:25:26Z</time>
      </trkpt>
      <trkpt lat="43.21669" lon="0.09023">
        <ele>327</ele>
        <time>2020-10-18T08:25:36Z</time>
      </trkpt>
      <trkpt lat="43.21712" lon="0.09011">
        <ele>327</ele>
        <time>2020-10-18T08:26:05Z</time>
      </trkpt>
      <trkpt lat="43.21717" lon="0.09006">
        <ele>327</ele>
        <time>2020-10-18T08:26:09Z</time>
      </trkpt>
      <trkpt lat="43.21726" lon="0.09003">
        <ele>327</ele>
        <time>2020-10-18T08:26:17Z</time>
      </trkpt>
      <trkpt lat="43.21735" lon="0.09011">
        <ele>327</ele>
        <time>2020-10-18T08:26:48Z</time>
      </trkpt>
      <trkpt lat="43.21747" lon="0.09047">
        <ele>327</ele>
        <time>2020-10-18T08:27:09Z</time>
      </trkpt>
      <trkpt lat="43.21757" lon="0.09065">
        <ele>327</ele>
        <time>2020-10-18T08:27:21Z</time>
      </trkpt>
      <trkpt lat="43.21764" lon="0.09067">
        <ele>327</ele>
        <time>2020-10-18T08:27:28Z</time>
      </trkpt>
      <trkpt lat="43.21807" lon="0.09052">
        <ele>326</ele>
        <time>2020-10-18T08:27:59Z</time>
      </trkpt>
      <trkpt lat="43.21818" lon="0.09052">
        <ele>326</ele>
        <time>2020-10-18T08:28:08Z</time>
      </trkpt>
      <trkpt lat="43.21821" lon="0.09059">
        <ele>326</ele>
        <time>2020-10-18T08:28:12Z</time>
      </trkpt>
      <trkpt lat="43.21828" lon="0.09115">
        <ele>326</ele>
        <time>2020-10-18T08:28:43Z</time>
      </trkpt>
      <trkpt lat="43.21828" lon="0.0912">
        <ele>326</ele>
        <time>2020-10-18T08:28:46Z</time>
      </trkpt>
      <trkpt lat="43.21835" lon="0.09148">
        <ele>326</ele>
        <time>2020-10-18T08:29:01Z</time>
      </trkpt>
      <trkpt lat="43.21835" lon="0.09152">
        <ele>326</ele>
        <time>2020-10-18T08:29:04Z</time>
      </trkpt>
      <trkpt lat="43.21838" lon="0.09158">
        <ele>326</ele>
        <time>2020-10-18T08:29:12Z</time>
      </trkpt>
      <trkpt lat="43.21842" lon="0.0921">
        <ele>326</ele>
        <time>2020-10-18T08:29:43Z</time>
      </trkpt>
      <trkpt lat="43.21842" lon="0.09216">
        <ele>326</ele>
        <time>2020-10-18T08:29:46Z</time>
      </trkpt>
      <trkpt lat="43.21846" lon="0.09232">
        <ele>326</ele>
        <time>2020-10-18T08:29:55Z</time>
      </trkpt>
      <trkpt lat="43.21854" lon="0.09241">
        <ele>326</ele>
        <time>2020-10-18T08:30:04Z</time>
      </trkpt>
      <trkpt lat="43.2186" lon="0.09244">
        <ele>326</ele>
        <time>2020-10-18T08:30:09Z</time>
      </trkpt>
      <trkpt lat="43.21888" lon="0.09234">
        <ele>325</ele>
        <time>2020-10-18T08:30:32Z</time>
      </trkpt>
      <trkpt lat="43.21912" lon="0.09221">
        <ele>325</ele>
        <time>2020-10-18T08:30:51Z</time>
      </trkpt>
      <trkpt lat="43.21915" lon="0.09218">
        <ele>325</ele>
        <time>2020-10-18T08:30:58Z</time>
      </trkpt>
      <trkpt lat="43.21922" lon="0.09217">
        <ele>325</ele>
        <time>2020-10-18T08:31:08Z</time>
      </trkpt>
      <trkpt lat="43.2196" lon="0.09202">
        <ele>324</ele>
        <time>2020-10-18T08:31:39Z</time>
      </trkpt>
      <trkpt lat="43.21964" lon="0.09201">
        <ele>324</ele>
        <time>2020-10-18T08:31:43Z</time>
      </trkpt>
      <trkpt lat="43.21984" lon="0.0919">
        <ele>324</ele>
        <time>2020-10-18T08:32:09Z</time>
      </trkpt>
      <trkpt lat="43.2199" lon="0.09191">
        <ele>324</ele>
        <time>2020-10-18T08:32:13Z</time>
      </trkpt>
      <trkpt lat="43.22" lon="0.09184">
        <ele>324</ele>
        <time>2020-10-18T08:32:21Z</time>
      </trkpt>
      <trkpt lat="43.2202" lon="0.09176">
        <ele>324</ele>
        <time>2020-10-18T08:32:39Z</time>
      </trkpt>
      <trkpt lat="43.22023" lon="0.09173">
        <ele>324</ele>
        <time>2020-10-18T08:32:42Z</time>
      </trkpt>
      <trkpt lat="43.22042" lon="0.09165">
        <ele>324</ele>
        <time>2020-10-18T08:32:55Z</time>
      </trkpt>
      <trkpt lat="43.22057" lon="0.09156">
        <ele>324</ele>
        <time>2020-10-18T08:33:07Z</time>
      </trkpt>
      <trkpt lat="43.22066" lon="0.09158">
        <ele>323</ele>
        <time>2020-10-18T08:33:14Z</time>
      </trkpt>
      <trkpt lat="43.22069" lon="0.09155">
        <ele>323</ele>
        <time>2020-10-18T08:33:17Z</time>
      </trkpt>
      <trkpt lat="43.22074" lon="0.09154">
        <ele>323</ele>
        <time>2020-10-18T08:33:21Z</time>
      </trkpt>
      <trkpt lat="43.22078" lon="0.0915">
        <ele>323</ele>
        <time>2020-10-18T08:33:34Z</time>
      </trkpt>
      <trkpt lat="43.22083" lon="0.09151">
        <ele>323</ele>
        <time>2020-10-18T08:33:38Z</time>
      </trkpt>
      <trkpt lat="43.22102" lon="0.09167">
        <ele>323</ele>
        <time>2020-10-18T08:33:56Z</time>
      </trkpt>
      <trkpt lat="43.22131" lon="0.09178">
        <ele>323</ele>
        <time>2020-10-18T08:34:19Z</time>
      </trkpt>
      <trkpt lat="43.22136" lon="0.09176">
        <ele>323</ele>
        <time>2020-10-18T08:34:23Z</time>
      </trkpt>
      <trkpt lat="43.22173" lon="0.09178">
        <ele>322</ele>
        <time>2020-10-18T08:34:53Z</time>
      </trkpt>
      <trkpt lat="43.22199" lon="0.09169">
        <ele>321</ele>
        <time>2020-10-18T08:35:17Z</time>
      </trkpt>
      <trkpt lat="43.22208" lon="0.09161">
        <ele>322</ele>
        <time>2020-10-18T08:35:27Z</time>
      </trkpt>
      <trkpt lat="43.22214" lon="0.09159">
        <ele>322</ele>
        <time>2020-10-18T08:35:32Z</time>
      </trkpt>
      <trkpt lat="43.22241" lon="0.09141">
        <ele>321</ele>
        <time>2020-10-18T08:35:55Z</time>
      </trkpt>
      <trkpt lat="43.22248" lon="0.09141">
        <ele>321</ele>
        <time>2020-10-18T08:35:59Z</time>
      </trkpt>
      <trkpt lat="43.22261" lon="0.09136">
        <ele>321</ele>
        <time>2020-10-18T08:36:08Z</time>
      </trkpt>
      <trkpt lat="43.22266" lon="0.09131">
        <ele>321</ele>
        <time>2020-10-18T08:36:11Z</time>
      </trkpt>
      <trkpt lat="43.2227" lon="0.09121">
        <ele>321</ele>
        <time>2020-10-18T08:36:17Z</time>
      </trkpt>
      <trkpt lat="43.22272" lon="0.09114">
        <ele>321</ele>
        <time>2020-10-18T08:36:20Z</time>
      </trkpt>
      <trkpt lat="43.22274" lon="0.09111">
        <ele>321</ele>
        <time>2020-10-18T08:36:23Z</time>
      </trkpt>
      <trkpt lat="43.22283" lon="0.09102">
        <ele>321</ele>
        <time>2020-10-18T08:36:31Z</time>
      </trkpt>
      <trkpt lat="43.22288" lon="0.09102">
        <ele>321</ele>
        <time>2020-10-18T08:36:34Z</time>
      </trkpt>
      <trkpt lat="43.22292" lon="0.091">
        <ele>321</ele>
        <time>2020-10-18T08:36:38Z</time>
      </trkpt>
      <trkpt lat="43.22297" lon="0.09099">
        <ele>321</ele>
        <time>2020-10-18T08:36:42Z</time>
      </trkpt>
      <trkpt lat="43.22303" lon="0.09101">
        <ele>321</ele>
        <time>2020-10-18T08:36:46Z</time>
      </trkpt>
      <trkpt lat="43.22309" lon="0.09105">
        <ele>321</ele>
        <time>2020-10-18T08:36:51Z</time>
      </trkpt>
      <trkpt lat="43.22313" lon="0.09106">
        <ele>321</ele>
        <time>2020-10-18T08:36:54Z</time>
      </trkpt>
      <trkpt lat="43.2232" lon="0.0911">
        <ele>321</ele>
        <time>2020-10-18T08:36:59Z</time>
      </trkpt>
      <trkpt lat="43.22324" lon="0.09111">
        <ele>322</ele>
        <time>2020-10-18T08:37:09Z</time>
      </trkpt>
      <trkpt lat="43.22334" lon="0.0912">
        <ele>321</ele>
        <time>2020-10-18T08:37:33Z</time>
      </trkpt>
      <trkpt lat="43.2234" lon="0.09123">
        <ele>321</ele>
        <time>2020-10-18T08:37:38Z</time>
      </trkpt>
      <trkpt lat="43.22347" lon="0.09132">
        <ele>321</ele>
        <time>2020-10-18T08:37:46Z</time>
      </trkpt>
      <trkpt lat="43.22352" lon="0.09135">
        <ele>321</ele>
        <time>2020-10-18T08:37:50Z</time>
      </trkpt>
      <trkpt lat="43.22358" lon="0.09136">
        <ele>321</ele>
        <time>2020-10-18T08:37:55Z</time>
      </trkpt>
      <trkpt lat="43.2237" lon="0.09131">
        <ele>321</ele>
        <time>2020-10-18T08:38:16Z</time>
      </trkpt>
      <trkpt lat="43.22376" lon="0.09134">
        <ele>321</ele>
        <time>2020-10-18T08:38:19Z</time>
      </trkpt>
      <trkpt lat="43.22391" lon="0.09145">
        <ele>320</ele>
        <time>2020-10-18T08:38:32Z</time>
      </trkpt>
      <trkpt lat="43.22405" lon="0.09159">
        <ele>320</ele>
        <time>2020-10-18T08:38:46Z</time>
      </trkpt>
      <trkpt lat="43.22433" lon="0.09145">
        <ele>318</ele>
        <time>2020-10-18T08:39:52Z</time>
      </trkpt>
      <trkpt lat="43.22449" lon="0.09135">
        <ele>318</ele>
        <time>2020-10-18T08:40:06Z</time>
      </trkpt>
      <trkpt lat="43.22485" lon="0.09117">
        <ele>318</ele>
        <time>2020-10-18T08:40:37Z</time>
      </trkpt>
      <trkpt lat="43.2254" lon="0.09097">
        <ele>318</ele>
        <time>2020-10-18T08:41:12Z</time>
      </trkpt>
      <trkpt lat="43.22547" lon="0.09094">
        <ele>318</ele>
        <time>2020-10-18T08:41:18Z</time>
      </trkpt>
      <trkpt lat="43.22562" lon="0.09089">
        <ele>318</ele>
        <time>2020-10-18T08:41:29Z</time>
      </trkpt>
      <trkpt lat="43.22608" lon="0.0907">
        <ele>317</ele>
        <time>2020-10-18T08:42:02Z</time>
      </trkpt>
      <trkpt lat="43.22618" lon="0.09064">
        <ele>317</ele>
        <time>2020-10-18T08:42:10Z</time>
      </trkpt>
      <trkpt lat="43.22627" lon="0.09062">
        <ele>316</ele>
        <time>2020-10-18T08:42:18Z</time>
      </trkpt>
      <trkpt lat="43.22654" lon="0.0905">
        <ele>316</ele>
        <time>2020-10-18T08:42:39Z</time>
      </trkpt>
      <trkpt lat="43.22665" lon="0.09048">
        <ele>316</ele>
        <time>2020-10-18T08:42:47Z</time>
      </trkpt>
      <trkpt lat="43.22684" lon="0.09038">
        <ele>315</ele>
        <time>2020-10-18T08:43:15Z</time>
      </trkpt>
      <trkpt lat="43.22698" lon="0.09032">
        <ele>315</ele>
        <time>2020-10-18T08:43:28Z</time>
      </trkpt>
      <trkpt lat="43.22705" lon="0.09027">
        <ele>315</ele>
        <time>2020-10-18T08:43:33Z</time>
      </trkpt>
      <trkpt lat="43.22717" lon="0.09024">
        <ele>315</ele>
        <time>2020-10-18T08:43:40Z</time>
      </trkpt>
      <trkpt lat="43.22761" lon="0.09005">
        <ele>314</ele>
        <time>2020-10-18T08:44:14Z</time>
      </trkpt>
      <trkpt lat="43.22766" lon="0.09003">
        <ele>314</ele>
        <time>2020-10-18T08:44:19Z</time>
      </trkpt>
      <trkpt lat="43.228" lon="0.08991">
        <ele>313</ele>
        <time>2020-10-18T08:44:49Z</time>
      </trkpt>
      <trkpt lat="43.22828" lon="0.08984">
        <ele>312</ele>
        <time>2020-10-18T08:45:15Z</time>
      </trkpt>
      <trkpt lat="43.22844" lon="0.08982">
        <ele>312</ele>
        <time>2020-10-18T08:45:26Z</time>
      </trkpt>
      <trkpt lat="43.22867" lon="0.08969">
        <ele>312</ele>
        <time>2020-10-18T08:45:59Z</time>
      </trkpt>
      <trkpt lat="43.22878" lon="0.08963">
        <ele>312</ele>
        <time>2020-10-18T08:46:10Z</time>
      </trkpt>
      <trkpt lat="43.2289" lon="0.08947">
        <ele>312</ele>
        <time>2020-10-18T08:46:22Z</time>
      </trkpt>
      <trkpt lat="43.22904" lon="0.08944">
        <ele>312</ele>
        <time>2020-10-18T08:46:31Z</time>
      </trkpt>
      <trkpt lat="43.2292" lon="0.08934">
        <ele>312</ele>
        <time>2020-10-18T08:46:43Z</time>
      </trkpt>
      <trkpt lat="43.22925" lon="0.08933">
        <ele>312</ele>
        <time>2020-10-18T08:46:53Z</time>
      </trkpt>
      <trkpt lat="43.22931" lon="0.08939">
        <ele>312</ele>
        <time>2020-10-18T08:47:00Z</time>
      </trkpt>
      <trkpt lat="43.22949" lon="0.0892">
        <ele>313</ele>
        <time>2020-10-18T08:47:30Z</time>
      </trkpt>
      <trkpt lat="43.22967" lon="0.08907">
        <ele>313</ele>
        <time>2020-10-18T08:47:50Z</time>
      </trkpt>
      <trkpt lat="43.22987" lon="0.08887">
        <ele>313</ele>
        <time>2020-10-18T08:48:08Z</time>
      </trkpt>
      <trkpt lat="43.22994" lon="0.08885">
        <ele>313</ele>
        <time>2020-10-18T08:48:13Z</time>
      </trkpt>
      <trkpt lat="43.22999" lon="0.08879">
        <ele>313</ele>
        <time>2020-10-18T08:48:17Z</time>
      </trkpt>
      <trkpt lat="43.23019" lon="0.08873">
        <ele>313</ele>
        <time>2020-10-18T08:48:35Z</time>
      </trkpt>
      <trkpt lat="43.23039" lon="0.08861">
        <ele>313</ele>
        <time>2020-10-18T08:48:56Z</time>
      </trkpt>
      <trkpt lat="43.23046" lon="0.08852">
        <ele>313</ele>
        <time>2020-10-18T08:49:05Z</time>
      </trkpt>
      <trkpt lat="43.23054" lon="0.0885">
        <ele>313</ele>
        <time>2020-10-18T08:49:10Z</time>
      </trkpt>
      <trkpt lat="43.23067" lon="0.08839">
        <ele>313</ele>
        <time>2020-10-18T08:49:21Z</time>
      </trkpt>
      <trkpt lat="43.23099" lon="0.08797">
        <ele>313</ele>
        <time>2020-10-18T08:49:55Z</time>
      </trkpt>
      <trkpt lat="43.23104" lon="0.08789">
        <ele>313</ele>
        <time>2020-10-18T08:50:00Z</time>
      </trkpt>
      <trkpt lat="43.23116" lon="0.08777">
        <ele>313</ele>
        <time>2020-10-18T08:50:11Z</time>
      </trkpt>
      <trkpt lat="43.23129" lon="0.08764">
        <ele>313</ele>
        <time>2020-10-18T08:50:23Z</time>
      </trkpt>
      <trkpt lat="43.23155" lon="0.08759">
        <ele>313</ele>
        <time>2020-10-18T08:50:40Z</time>
      </trkpt>
      <trkpt lat="43.23166" lon="0.08753">
        <ele>313</ele>
        <time>2020-10-18T08:50:51Z</time>
      </trkpt>
      <trkpt lat="43.23171" lon="0.08739">
        <ele>313</ele>
        <time>2020-10-18T08:51:05Z</time>
      </trkpt>
      <trkpt lat="43.23184" lon="0.08741">
        <ele>314</ele>
        <time>2020-10-18T08:51:15Z</time>
      </trkpt>
      <trkpt lat="43.23193" lon="0.08739">
        <ele>314</ele>
        <time>2020-10-18T08:51:21Z</time>
      </trkpt>
      <trkpt lat="43.23206" lon="0.08728">
        <ele>315</ele>
        <time>2020-10-18T08:51:32Z</time>
      </trkpt>
      <trkpt lat="43.23213" lon="0.08723">
        <ele>315</ele>
        <time>2020-10-18T08:51:44Z</time>
      </trkpt>
      <trkpt lat="43.23221" lon="0.08725">
        <ele>315</ele>
        <time>2020-10-18T08:51:52Z</time>
      </trkpt>
      <trkpt lat="43.23244" lon="0.08719">
        <ele>313</ele>
        <time>2020-10-18T08:52:12Z</time>
      </trkpt>
      <trkpt lat="43.23252" lon="0.08721">
        <ele>312</ele>
        <time>2020-10-18T08:52:19Z</time>
      </trkpt>
      <trkpt lat="43.23258" lon="0.08713">
        <ele>312</ele>
        <time>2020-10-18T08:52:27Z</time>
      </trkpt>
      <trkpt lat="43.23272" lon="0.08668">
        <ele>311</ele>
        <time>2020-10-18T08:53:00Z</time>
      </trkpt>
      <trkpt lat="43.23266" lon="0.08648">
        <ele>311</ele>
        <time>2020-10-18T08:53:13Z</time>
      </trkpt>
      <trkpt lat="43.23265" lon="0.08631">
        <ele>311</ele>
        <time>2020-10-18T08:53:28Z</time>
      </trkpt>
      <trkpt lat="43.23282" lon="0.08557">
        <ele>312</ele>
        <time>2020-10-18T08:54:03Z</time>
      </trkpt>
      <trkpt lat="43.23287" lon="0.08527">
        <ele>311</ele>
        <time>2020-10-18T08:54:20Z</time>
      </trkpt>
      <trkpt lat="43.23302" lon="0.08477">
        <ele>311</ele>
        <time>2020-10-18T08:54:51Z</time>
      </trkpt>
      <trkpt lat="43.23306" lon="0.08458">
        <ele>311</ele>
        <time>2020-10-18T08:55:04Z</time>
      </trkpt>
      <trkpt lat="43.23311" lon="0.08446">
        <ele>311</ele>
        <time>2020-10-18T08:55:14Z</time>
      </trkpt>
      <trkpt lat="43.23313" lon="0.08423">
        <ele>312</ele>
        <time>2020-10-18T08:55:23Z</time>
      </trkpt>
      <trkpt lat="43.23312" lon="0.08411">
        <ele>312</ele>
        <time>2020-10-18T08:55:28Z</time>
      </trkpt>
      <trkpt lat="43.23314" lon="0.0838">
        <ele>312</ele>
        <time>2020-10-18T08:55:46Z</time>
      </trkpt>
      <trkpt lat="43.23321" lon="0.0837">
        <ele>312</ele>
        <time>2020-10-18T08:56:00Z</time>
      </trkpt>
      <trkpt lat="43.23327" lon="0.08356">
        <ele>312</ele>
        <time>2020-10-18T08:56:12Z</time>
      </trkpt>
      <trkpt lat="43.23327" lon="0.08311">
        <ele>312</ele>
        <time>2020-10-18T08:56:35Z</time>
      </trkpt>
      <trkpt lat="43.23332" lon="0.08289">
        <ele>312</ele>
        <time>2020-10-18T08:56:46Z</time>
      </trkpt>
      <trkpt lat="43.23333" lon="0.08279">
        <ele>312</ele>
        <time>2020-10-18T08:56:53Z</time>
      </trkpt>
      <trkpt lat="43.23341" lon="0.08253">
        <ele>312</ele>
        <time>2020-10-18T08:57:10Z</time>
      </trkpt>
      <trkpt lat="43.23341" lon="0.08224">
        <ele>312</ele>
        <time>2020-10-18T08:57:27Z</time>
      </trkpt>
      <trkpt lat="43.23343" lon="0.08215">
        <ele>312</ele>
        <time>2020-10-18T08:57:34Z</time>
      </trkpt>
      <trkpt lat="43.2335" lon="0.08208">
        <ele>312</ele>
        <time>2020-10-18T08:57:48Z</time>
      </trkpt>
      <trkpt lat="43.23385" lon="0.082">
        <ele>312</ele>
        <time>2020-10-18T08:58:14Z</time>
      </trkpt>
      <trkpt lat="43.23388" lon="0.0819">
        <ele>312</ele>
        <time>2020-10-18T08:58:19Z</time>
      </trkpt>
      <trkpt lat="43.23393" lon="0.08184">
        <ele>312</ele>
        <time>2020-10-18T08:58:24Z</time>
      </trkpt>
      <trkpt lat="43.23399" lon="0.08165">
        <ele>312</ele>
        <time>2020-10-18T08:58:34Z</time>
      </trkpt>
      <trkpt lat="43.23401" lon="0.0816">
        <ele>312</ele>
        <time>2020-10-18T08:58:44Z</time>
      </trkpt>
    </trkseg>
  </trk>
</gpx>